Time;durP1;ratioP1;P1;durP2;ratioP2;P2;SDS_P1;SDS_P2;PMS_P1;PMS_P2;Temp;Humidity;BMP_temperature;BMP_pressure;BME280_temperature;BME280_humidity;BME280_pressure;Samples;Min_cycle;Max_cycle;Signal;HPM_P1;HPM_P2
2024/03/08 00:00:54;;;;;;;29.83;11.95;;;;;;;;;;5052361;28;20057;-69
2024/03/08 00:03:40;;;;;;;29.55;12.23;;;;;;;;;;5051730;28;20079;-69
2024/03/08 00:06:25;;;;;;;25.20;13.57;;;;;;;;;;5053086;28;20544;-69
2024/03/08 00:09:12;;;;;;;25.38;12.48;;;;;;;;;;5038318;28;20036;-69
2024/03/08 00:11:57;;;;;;;28.77;12.45;;;;;;;;;;5037815;28;20028;-69
2024/03/08 00:14:44;;;;;;;30.58;12.32;;;;;;;;;;5051107;28;20478;-69
2024/03/08 00:17:31;;;;;;;28.20;11.93;;;;;;;;;;5051592;28;20056;-69
2024/03/08 00:20:19;;;;;;;23.45;11.38;;;;;;;;;;5051936;28;20025;-69
2024/03/08 00:23:05;;;;;;;27.67;11.68;;;;;;;;;;5052077;28;20024;-69
2024/03/08 00:25:51;;;;;;;29.30;11.63;;;;;;;;;;5051663;28;20109;-69
2024/03/08 00:28:36;;;;;;;29.65;11.35;;;;;;;;;;5053180;28;20028;-69
2024/03/08 00:31:22;;;;;;;28.35;12.30;;;;;;;;;;5051204;28;20478;-69
2024/03/08 00:34:11;;;;;;;23.13;11.43;;;;;;;;;;5051206;28;20036;-69
2024/03/08 00:36:58;;;;;;;24.10;11.23;;;;;;;;;;5039098;28;20021;-69
2024/03/08 00:39:43;;;;;;;26.15;11.43;;;;;;;;;;5053301;28;20086;-69
2024/03/08 00:42:29;;;;;;;24.17;11.35;;;;;;;;;;5042213;28;20025;-69
2024/03/08 00:45:15;;;;;;;29.27;11.48;;;;;;;;;;5041611;28;20151;-69
2024/03/08 00:48:00;;;;;;;26.73;12.10;;;;;;;;;;5057440;28;20025;-69
2024/03/08 00:50:46;;;;;;;27.73;11.60;;;;;;;;;;5056275;28;20021;-69
2024/03/08 00:53:32;;;;;;;22.23;9.95;;;;;;;;;;5055270;28;20029;-69
2024/03/08 00:56:17;;;;;;;29.45;11.10;;;;;;;;;;5056553;28;20482;-69
2024/03/08 00:59:03;;;;;;;23.33;10.77;;;;;;;;;;5055766;28;20024;-69
2024/03/08 01:01:48;;;;;;;26.15;10.73;;;;;;;;;;5041874;28;20025;-69
2024/03/08 01:04:34;;;;;;;21.75;9.10;;;;;;;;;;5056644;28;20025;-69
2024/03/08 01:07:20;;;;;;;23.35;10.10;;;;;;;;;;5057188;28;20017;-69
2024/03/08 01:10:09;;;;;;;24.95;10.85;;;;;;;;;;5055306;28;20075;-68
2024/03/08 01:12:56;;;;;;;23.15;9.18;;;;;;;;;;5055041;28;20375;-69
2024/03/08 01:15:42;;;;;;;23.65;9.18;;;;;;;;;;5056430;28;20486;-69
2024/03/08 01:18:28;;;;;;;18.15;9.98;;;;;;;;;;5046331;28;20025;-69
2024/03/08 01:21:13;;;;;;;19.23;9.60;;;;;;;;;;5042922;28;20017;-69
2024/03/08 01:23:59;;;;;;;21.20;9.40;;;;;;;;;;5056260;28;20053;-69
2024/03/08 01:26:45;;;;;;;26.48;9.75;;;;;;;;;;5038887;28;20025;-69
2024/03/08 01:29:31;;;;;;;24.48;10.05;;;;;;;;;;5036399;28;20033;-69
2024/03/08 01:32:16;;;;;;;21.52;8.80;;;;;;;;;;5035345;28;20095;-69
2024/03/08 01:35:02;;;;;;;18.73;11.02;;;;;;;;;;5035934;28;20030;-69
2024/03/08 01:37:49;;;;;;;20.52;9.93;;;;;;;;;;5037389;28;20116;-69
2024/03/08 01:40:36;;;;;;;24.20;9.95;;;;;;;;;;5037426;28;20033;-69
2024/03/08 01:43:26;;;;;;;19.50;9.70;;;;;;;;;;5043354;28;20490;-69
2024/03/08 01:46:16;;;;;;;22.67;9.57;;;;;;;;;;5035297;28;20029;-69
2024/03/08 01:49:02;;;;;;;21.45;9.77;;;;;;;;;;5036672;28;20021;-69
2024/03/08 01:51:51;;;;;;;22.27;10.07;;;;;;;;;;5035280;28;20026;-69
2024/03/08 01:54:36;;;;;;;19.20;9.82;;;;;;;;;;5024640;28;20021;-69
2024/03/08 01:57:22;;;;;;;21.27;9.90;;;;;;;;;;5035207;28;20029;-69
2024/03/08 02:00:10;;;;;;;21.23;9.63;;;;;;;;;;5035586;28;20026;-69
2024/03/08 02:02:57;;;;;;;24.27;10.15;;;;;;;;;;5019842;28;20025;-69
2024/03/08 02:05:43;;;;;;;20.95;10.25;;;;;;;;;;5034562;28;20056;-69
2024/03/08 02:08:29;;;;;;;21.55;8.48;;;;;;;;;;5049268;28;20381;-69
2024/03/08 02:11:15;;;;;;;26.52;10.50;;;;;;;;;;5053605;28;20033;-69
2024/03/08 02:14:01;;;;;;;25.85;10.85;;;;;;;;;;5053135;28;20032;-69
2024/03/08 02:16:47;;;;;;;23.02;10.20;;;;;;;;;;5045261;28;20121;-69
2024/03/08 02:19:33;;;;;;;25.25;11.00;;;;;;;;;;5038348;28;20040;-69
2024/03/08 02:22:19;;;;;;;19.80;9.25;;;;;;;;;;5042976;28;20033;-69
2024/03/08 02:25:05;;;;;;;21.55;10.68;;;;;;;;;;5034833;28;20018;-69
2024/03/08 02:27:51;;;;;;;19.67;9.40;;;;;;;;;;5053108;28;20126;-69
2024/03/08 02:30:37;;;;;;;17.15;9.75;;;;;;;;;;5053304;28;20032;-69
2024/03/08 02:33:23;;;;;;;19.15;10.30;;;;;;;;;;5054540;28;20056;-69
2024/03/08 02:36:08;;;;;;;25.25;10.43;;;;;;;;;;5039145;28;20095;-68
2024/03/08 02:38:55;;;;;;;16.27;9.20;;;;;;;;;;5052522;28;20040;-69
2024/03/08 02:41:42;;;;;;;20.92;9.90;;;;;;;;;;5053918;28;20017;-69
2024/03/08 02:44:27;;;;;;;17.85;9.57;;;;;;;;;;5054333;28;20483;-69
2024/03/08 02:47:13;;;;;;;14.63;6.78;;;;;;;;;;5054467;28;20441;-69
2024/03/08 02:49:59;;;;;;;24.92;9.40;;;;;;;;;;5054197;28;20175;-68
2024/03/08 02:52:46;;;;;;;20.77;9.75;;;;;;;;;;5053952;28;20079;-69
2024/03/08 02:55:35;;;;;;;22.80;8.52;;;;;;;;;;5053646;28;20043;-69
2024/03/08 02:58:21;;;;;;;19.13;9.60;;;;;;;;;;5054043;28;20106;-69
2024/03/08 03:01:07;;;;;;;17.00;7.80;;;;;;;;;;5033609;28;20017;-69
2024/03/08 03:03:53;;;;;;;27.17;9.85;;;;;;;;;;5032832;28;20022;-69
2024/03/08 03:06:39;;;;;;;20.73;9.10;;;;;;;;;;5047322;28;20021;-69
2024/03/08 03:09:27;;;;;;;15.88;9.05;;;;;;;;;;5053077;28;20108;-69
2024/03/08 03:12:13;;;;;;;17.80;8.95;;;;;;;;;;5038105;28;20028;-69
2024/03/08 03:14:59;;;;;;;21.25;9.07;;;;;;;;;;5053276;28;20036;-69
2024/03/08 03:17:52;;;;;;;19.75;9.55;;;;;;;;;;5038080;28;20530;-69
2024/03/08 03:20:42;;;;;;;17.92;8.25;;;;;;;;;;5052790;28;20040;-69
2024/03/08 03:23:28;;;;;;;21.67;9.18;;;;;;;;;;5053661;28;20021;-69
2024/03/08 03:26:13;;;;;;;18.27;9.32;;;;;;;;;;5053673;28;20486;-69
2024/03/08 03:29:00;;;;;;;22.17;9.18;;;;;;;;;;5052722;28;20063;-69
2024/03/08 03:31:46;;;;;;;15.45;7.25;;;;;;;;;;5039869;28;20403;-69
2024/03/08 03:34:32;;;;;;;21.80;8.88;;;;;;;;;;5045990;28;20578;-69
2024/03/08 03:37:18;;;;;;;25.98;10.48;;;;;;;;;;5034228;28;20029;-69
2024/03/08 03:40:08;;;;;;;23.95;9.05;;;;;;;;;;5051172;28;20078;-69
2024/03/08 03:42:54;;;;;;;18.38;9.00;;;;;;;;;;5051478;28;20021;-69
2024/03/08 03:45:41;;;;;;;21.38;10.40;;;;;;;;;;5052553;28;20021;-69
2024/03/08 03:48:27;;;;;;;19.48;9.15;;;;;;;;;;5052953;28;20028;-69
2024/03/08 03:51:15;;;;;;;24.63;11.88;;;;;;;;;;5052134;28;20040;-69
2024/03/08 03:54:03;;;;;;;24.20;9.73;;;;;;;;;;5051379;28;20016;-69
2024/03/08 03:56:52;;;;;;;21.00;9.40;;;;;;;;;;5053121;28;20056;-69
2024/03/08 03:59:38;;;;;;;23.58;9.95;;;;;;;;;;5037623;28;20513;-69
2024/03/08 04:02:25;;;;;;;25.00;9.00;;;;;;;;;;5053079;28;20394;-69
2024/03/08 04:05:11;;;;;;;20.42;10.60;;;;;;;;;;5024154;28;20074;-69
2024/03/08 04:07:56;;;;;;;21.33;10.73;;;;;;;;;;5052024;28;20021;-69
2024/03/08 04:10:42;;;;;;;25.85;10.30;;;;;;;;;;5050955;28;20085;-69
2024/03/08 04:13:28;;;;;;;24.05;10.88;;;;;;;;;;5051325;28;20017;-69
2024/03/08 04:16:13;;;;;;;31.33;11.55;;;;;;;;;;5050488;28;20554;-69
2024/03/08 04:18:59;;;;;;;27.55;13.05;;;;;;;;;;5051205;28;20036;-69
2024/03/08 04:21:45;;;;;;;29.65;13.90;;;;;;;;;;5036071;28;20087;-69
2024/03/08 04:24:30;;;;;;;27.77;11.43;;;;;;;;;;5048634;28;20052;-69
2024/03/08 04:27:16;;;;;;;26.50;11.55;;;;;;;;;;5031935;28;20021;-69
2024/03/08 04:30:02;;;;;;;26.63;10.38;;;;;;;;;;5033745;28;20033;-69
2024/03/08 04:32:48;;;;;;;34.53;13.02;;;;;;;;;;5031549;28;20491;-69
2024/03/08 04:35:34;;;;;;;26.38;12.00;;;;;;;;;;5030886;28;20063;-69
2024/03/08 04:38:20;;;;;;;26.73;11.27;;;;;;;;;;5032444;28;20092;-69
2024/03/08 04:41:05;;;;;;;29.58;13.00;;;;;;;;;;5032440;28;20032;-69
2024/03/08 04:43:51;;;;;;;30.50;12.35;;;;;;;;;;5050672;28;20021;-69
2024/03/08 04:46:37;;;;;;;30.15;13.00;;;;;;;;;;5052525;28;20025;-69
2024/03/08 04:49:23;;;;;;;29.80;12.52;;;;;;;;;;5034980;28;20083;-69
2024/03/08 04:52:08;;;;;;;32.35;12.20;;;;;;;;;;5031142;28;20029;-68
2024/03/08 04:54:54;;;;;;;32.00;14.63;;;;;;;;;;5033371;28;20033;-69
2024/03/08 04:57:41;;;;;;;33.85;14.30;;;;;;;;;;5032423;28;20068;-69
2024/03/08 05:00:27;;;;;;;27.90;10.45;;;;;;;;;;5038734;28;20394;-69
2024/03/08 05:03:13;;;;;;;35.15;14.38;;;;;;;;;;5051198;28;20025;-69
2024/03/08 05:05:58;;;;;;;35.60;14.00;;;;;;;;;;5051911;28;20024;-69
2024/03/08 05:08:44;;;;;;;30.58;12.68;;;;;;;;;;5051944;28;20028;-69
2024/03/08 05:11:29;;;;;;;39.53;15.38;;;;;;;;;;5048775;28;20033;-69
2024/03/08 05:14:20;;;;;;;35.08;13.73;;;;;;;;;;5033771;28;20030;-69
2024/03/08 05:17:06;;;;;;;29.40;13.98;;;;;;;;;;5031123;28;20491;-69
2024/03/08 05:19:52;;;;;;;35.30;15.77;;;;;;;;;;5039811;28;20022;-69
2024/03/08 05:22:38;;;;;;;50.53;15.02;;;;;;;;;;5028266;28;20060;-69
2024/03/08 05:25:24;;;;;;;39.03;17.05;;;;;;;;;;5034069;28;20022;-69
2024/03/08 05:28:09;;;;;;;43.83;15.60;;;;;;;;;;5039928;28;20092;-69
2024/03/08 05:30:56;;;;;;;40.10;15.13;;;;;;;;;;5054857;28;20017;-69
2024/03/08 05:33:43;;;;;;;34.35;14.07;;;;;;;;;;5053674;28;20056;-69
2024/03/08 05:36:28;;;;;;;37.42;14.63;;;;;;;;;;5053770;28;20404;-69
2024/03/08 05:39:14;;;;;;;38.70;17.10;;;;;;;;;;5056595;28;20025;-69
2024/03/08 05:42:00;;;;;;;42.28;18.48;;;;;;;;;;5055381;28;20101;-69
2024/03/08 05:44:45;;;;;;;43.17;16.67;;;;;;;;;;5054763;28;20017;-69
2024/03/08 05:47:32;;;;;;;46.42;16.25;;;;;;;;;;5053607;28;20037;-69
2024/03/08 05:50:19;;;;;;;45.03;16.48;;;;;;;;;;5054267;28;20512;-69
2024/03/08 05:53:06;;;;;;;46.47;19.30;;;;;;;;;;5053469;28;20025;-68
2024/03/08 05:55:52;;;;;;;48.28;17.98;;;;;;;;;;5053785;28;20087;-69
2024/03/08 05:58:37;;;;;;;49.75;17.55;;;;;;;;;;5055155;28;20490;-68
2024/03/08 06:01:24;;;;;;;45.38;18.25;;;;;;;;;;5054265;28;20442;-69
2024/03/08 06:04:14;;;;;;;52.55;18.60;;;;;;;;;;5040120;28;20470;-69
2024/03/08 06:06:59;;;;;;;56.42;19.70;;;;;;;;;;5053738;28;20086;-69
2024/03/08 06:09:46;;;;;;;49.75;16.30;;;;;;;;;;5054310;28;20379;-69
2024/03/08 06:12:36;;;;;;;45.30;18.00;;;;;;;;;;5039000;28;20032;-69
2024/03/08 06:15:22;;;;;;;52.67;20.42;;;;;;;;;;5053597;28;20032;-68
2024/03/08 06:18:10;;;;;;;46.75;19.27;;;;;;;;;;5054333;28;20024;-68
2024/03/08 06:20:56;;;;;;;48.53;19.63;;;;;;;;;;5054979;28;20084;-69
2024/03/08 06:23:42;;;;;;;60.70;22.63;;;;;;;;;;5039689;28;20044;-69
2024/03/08 06:26:28;;;;;;;51.47;19.35;;;;;;;;;;5054355;28;20021;-69
2024/03/08 06:29:15;;;;;;;46.90;18.98;;;;;;;;;;5054395;28;20060;-69
2024/03/08 06:32:00;;;;;;;53.17;16.13;;;;;;;;;;5052559;28;20383;-69
2024/03/08 06:34:46;;;;;;;51.85;18.65;;;;;;;;;;5054072;28;20017;-69
2024/03/08 06:37:32;;;;;;;55.15;21.10;;;;;;;;;;5051713;28;20033;-69
2024/03/08 06:40:18;;;;;;;57.83;18.98;;;;;;;;;;5053736;28;20017;-69
2024/03/08 06:43:07;;;;;;;53.10;20.35;;;;;;;;;;5054181;28;20025;-69
2024/03/08 06:45:52;;;;;;;49.15;19.23;;;;;;;;;;5054541;28;20478;-69
2024/03/08 06:48:38;;;;;;;56.47;22.10;;;;;;;;;;5055394;28;20028;-69
2024/03/08 06:51:24;;;;;;;50.67;19.75;;;;;;;;;;5053671;28;20017;-69
2024/03/08 06:54:10;;;;;;;55.90;18.73;;;;;;;;;;5052730;28;20402;-69
2024/03/08 06:56:55;;;;;;;51.38;20.52;;;;;;;;;;5040324;28;20083;-69
2024/03/08 06:59:41;;;;;;;52.67;21.45;;;;;;;;;;5040302;28;20029;-68
2024/03/08 07:02:28;;;;;;;52.92;21.73;;;;;;;;;;5052939;28;20052;-69
2024/03/08 07:05:14;;;;;;;55.53;21.55;;;;;;;;;;5038856;28;20516;-69
2024/03/08 07:08:00;;;;;;;52.42;20.23;;;;;;;;;;5054489;28;20021;-69
2024/03/08 07:10:46;;;;;;;56.65;19.98;;;;;;;;;;5053825;28;20099;-69
2024/03/08 07:13:31;;;;;;;54.40;21.00;;;;;;;;;;5053582;28;20025;-69
2024/03/08 07:16:17;;;;;;;52.78;20.58;;;;;;;;;;5038668;28;20029;-69
2024/03/08 07:19:03;;;;;;;48.95;19.05;;;;;;;;;;5052902;28;20020;-69
2024/03/08 07:21:48;;;;;;;51.08;21.13;;;;;;;;;;5052400;28;20021;-69
2024/03/08 07:27:40;;;;;;;45.88;19.20;;;;;;;;;;5040930;28;20053;-69
2024/03/08 07:33:30;;;;;;;49.30;22.25;;;;;;;;;;5054191;28;20017;-69
2024/03/08 07:36:16;;;;;;;45.17;19.02;;;;;;;;;;5053282;28;20037;-69
2024/03/08 07:39:02;;;;;;;42.63;19.08;;;;;;;;;;5052653;28;20108;-69
2024/03/08 07:41:48;;;;;;;46.33;19.23;;;;;;;;;;5053394;28;20490;-69
2024/03/08 07:44:33;;;;;;;47.20;19.23;;;;;;;;;;5054041;28;20036;-69
2024/03/08 07:47:19;;;;;;;40.03;17.52;;;;;;;;;;5052720;28;20025;-69
2024/03/08 07:50:08;;;;;;;43.85;18.67;;;;;;;;;;5052676;28;20056;-69
2024/03/08 07:52:53;;;;;;;43.42;16.70;;;;;;;;;;5036499;28;20024;-69
2024/03/08 07:55:42;;;;;;;37.22;16.73;;;;;;;;;;5051638;28;20052;-69
2024/03/08 07:58:28;;;;;;;34.55;15.75;;;;;;;;;;5053404;28;20564;-69
2024/03/08 08:01:19;;;;;;;34.80;17.13;;;;;;;;;;5051491;28;20028;-69
2024/03/08 08:04:05;;;;;;;32.00;14.45;;;;;;;;;;5037704;28;20021;-69
2024/03/08 08:06:51;;;;;;;34.50;15.73;;;;;;;;;;5051055;28;20024;-69
2024/03/08 08:09:37;;;;;;;36.17;15.18;;;;;;;;;;5038984;28;20032;-69
2024/03/08 08:12:23;;;;;;;36.25;15.85;;;;;;;;;;5052141;28;20033;-69
2024/03/08 08:15:09;;;;;;;28.70;15.45;;;;;;;;;;5052169;28;20036;-69
2024/03/08 08:17:54;;;;;;;28.35;13.40;;;;;;;;;;5052931;28;20086;-69
2024/03/08 08:20:40;;;;;;;30.88;14.13;;;;;;;;;;5047679;28;20037;-69
2024/03/08 08:23:26;;;;;;;30.20;15.60;;;;;;;;;;5046657;28;20044;-68
2024/03/08 08:26:11;;;;;;;32.45;13.82;;;;;;;;;;5052365;28;20029;-68
2024/03/08 08:28:57;;;;;;;32.45;14.05;;;;;;;;;;5052144;28;20048;-69
2024/03/08 08:31:42;;;;;;;30.33;13.02;;;;;;;;;;5053102;28;20021;-69
2024/03/08 08:34:28;;;;;;;25.92;12.60;;;;;;;;;;5053212;28;20538;-68
2024/03/08 08:37:14;;;;;;;29.98;12.93;;;;;;;;;;5051907;28;20383;-68
2024/03/08 08:40:05;;;;;;;25.85;13.23;;;;;;;;;;5037653;28;20025;-69
2024/03/08 08:42:53;;;;;;;30.00;14.95;;;;;;;;;;5051361;28;20555;-69
2024/03/08 08:45:39;;;;;;;31.63;17.15;;;;;;;;;;5052351;28;20552;-69
2024/03/08 08:48:25;;;;;;;25.95;12.52;;;;;;;;;;5052259;28;20036;-69
2024/03/08 08:51:15;;;;;;;27.70;12.45;;;;;;;;;;5051917;28;20021;-69
2024/03/08 08:54:00;;;;;;;28.95;11.77;;;;;;;;;;5051944;28;20371;-68
2024/03/08 08:56:47;;;;;;;25.48;12.95;;;;;;;;;;5051865;28;20057;-69
2024/03/08 08:59:36;;;;;;;31.33;13.05;;;;;;;;;;5051936;28;20375;-68
2024/03/08 09:02:22;;;;;;;30.17;13.45;;;;;;;;;;5040376;28;20025;-69
2024/03/08 09:05:07;;;;;;;30.30;13.32;;;;;;;;;;5056380;28;20017;-69
2024/03/08 09:07:53;;;;;;;29.23;13.25;;;;;;;;;;5056013;28;20033;-68
2024/03/08 09:10:39;;;;;;;33.05;14.02;;;;;;;;;;5054590;28;20101;-69
2024/03/08 09:13:24;;;;;;;27.55;12.38;;;;;;;;;;5055678;28;20040;-69
2024/03/08 09:16:10;;;;;;;28.88;14.00;;;;;;;;;;5055409;28;20053;-69
2024/03/08 09:18:57;;;;;;;28.60;12.27;;;;;;;;;;5054353;28;20371;-69
2024/03/08 09:21:42;;;;;;;30.15;14.15;;;;;;;;;;5054505;28;20028;-69
2024/03/08 09:24:28;;;;;;;33.70;13.57;;;;;;;;;;5055269;28;20021;-69
2024/03/08 09:27:13;;;;;;;26.20;13.23;;;;;;;;;;5055839;28;20505;-69
2024/03/08 09:29:59;;;;;;;30.70;14.02;;;;;;;;;;5054318;28;20059;-69
2024/03/08 09:32:46;;;;;;;29.42;13.02;;;;;;;;;;5053851;28;20029;-69
2024/03/08 09:35:32;;;;;;;25.77;14.50;;;;;;;;;;5054406;28;20029;-69
2024/03/08 09:38:20;;;;;;;28.95;13.25;;;;;;;;;;5055724;28;20051;-69
2024/03/08 09:41:06;;;;;;;26.90;12.88;;;;;;;;;;5054145;28;20021;-69
2024/03/08 09:43:52;;;;;;;33.47;14.63;;;;;;;;;;5040572;28;20025;-69
2024/03/08 09:46:37;;;;;;;32.28;12.80;;;;;;;;;;5055695;28;20020;-68
2024/03/08 09:49:23;;;;;;;26.83;12.95;;;;;;;;;;5040012;28;20071;-69
2024/03/08 09:52:10;;;;;;;26.02;12.35;;;;;;;;;;5055097;28;20075;-68
2024/03/08 09:54:55;;;;;;;28.50;14.68;;;;;;;;;;5055014;28;20024;-69
2024/03/08 09:57:57;;;;;;;24.27;12.27;;;;;;;;;;5055370;28;20491;-69
2024/03/08 10:00:42;;;;;;;24.63;12.68;;;;;;;;;;5054034;28;20025;-69
2024/03/08 10:03:29;;;;;;;25.20;13.55;;;;;;;;;;5055101;28;20017;-69
2024/03/08 10:06:15;;;;;;;29.98;15.48;;;;;;;;;;5054826;28;20048;-69
2024/03/08 10:09:01;;;;;;;31.63;13.90;;;;;;;;;;5055021;28;20021;-69
2024/03/08 10:11:48;;;;;;;27.67;14.48;;;;;;;;;;5054168;28;20029;-69
2024/03/08 10:14:34;;;;;;;25.38;12.10;;;;;;;;;;5053219;28;20017;-69
2024/03/08 10:17:20;;;;;;;26.92;13.13;;;;;;;;;;5054391;28;20398;-70
2024/03/08 10:20:15;;;;;;;26.45;15.07;;;;;;;;;;5053502;28;20053;-69
2024/03/08 10:23:04;;;;;;;28.25;14.75;;;;;;;;;;5040672;28;20116;-70
2024/03/08 10:25:50;;;;;;;25.95;15.02;;;;;;;;;;5041857;28;20494;-70
2024/03/08 10:28:35;;;;;;;29.50;15.63;;;;;;;;;;5054004;28;20056;-70
2024/03/08 10:31:21;;;;;;;33.38;14.15;;;;;;;;;;5053827;28;20048;-69
2024/03/08 10:34:07;;;;;;;29.23;14.95;;;;;;;;;;5052933;28;20025;-69
2024/03/08 10:36:52;;;;;;;33.45;14.23;;;;;;;;;;5054497;28;20033;-69
2024/03/08 10:39:39;;;;;;;29.60;14.45;;;;;;;;;;5053195;28;20124;-69
2024/03/08 10:42:28;;;;;;;26.08;14.98;;;;;;;;;;5053969;28;20078;-69
2024/03/08 10:45:30;;;;;;;31.73;15.25;;;;;;;;;;5053512;28;20017;-69
2024/03/08 10:48:32;;;;;;;24.75;13.50;;;;;;;;;;5053691;28;20025;-70
2024/03/08 10:51:19;;;;;;;26.02;13.40;;;;;;;;;;5039433;28;20036;-70
2024/03/08 10:54:07;;;;;;;21.08;12.07;;;;;;;;;;5039192;28;20021;-69
2024/03/08 10:56:53;;;;;;;25.88;11.82;;;;;;;;;;5038967;28;20056;-70
2024/03/08 10:59:39;;;;;;;21.70;9.95;;;;;;;;;;5053705;28;20431;-70
2024/03/08 11:02:27;;;;;;;24.42;12.02;;;;;;;;;;5054283;28;20392;-68
2024/03/08 11:05:39;;;;;;;25.73;12.10;;;;;;;;;;5052966;28;20029;-69
2024/03/08 11:08:25;;;;;;;23.77;12.82;;;;;;;;;;5039207;28;20509;-69
2024/03/08 11:11:27;;;;;;;27.35;14.00;;;;;;;;;;5039562;28;20116;-69
2024/03/08 11:14:45;;;;;;;25.38;13.35;;;;;;;;;;5038982;28;20060;-69
2024/03/08 11:17:31;;;;;;;23.10;12.63;;;;;;;;;;5038048;28;20124;-69
2024/03/08 11:20:20;;;;;;;22.70;11.10;;;;;;;;;;5033782;28;20022;-69
2024/03/08 11:23:06;;;;;;;26.52;12.80;;;;;;;;;;5024038;28;20014;-71
2024/03/08 11:25:52;;;;;;;26.42;12.38;;;;;;;;;;5019824;28;20128;-73
2024/03/08 11:28:38;;;;;;;25.25;12.18;;;;;;;;;;5034086;28;20025;-72
2024/03/08 11:31:25;;;;;;;26.10;12.40;;;;;;;;;;5033376;28;20079;-70
2024/03/08 11:34:18;;;;;;;28.55;11.57;;;;;;;;;;5034808;28;20447;-70
2024/03/08 11:37:05;;;;;;;26.45;12.32;;;;;;;;;;5033869;28;20021;-71
2024/03/08 11:39:52;;;;;;;24.25;11.85;;;;;;;;;;5031843;28;20088;-71
2024/03/08 11:42:38;;;;;;;27.63;12.60;;;;;;;;;;5033141;28;20025;-70
2024/03/08 11:45:24;;;;;;;24.05;11.00;;;;;;;;;;5033524;28;20079;-71
2024/03/08 11:48:13;;;;;;;21.15;11.00;;;;;;;;;;5032125;28;20026;-70
2024/03/08 11:51:01;;;;;;;24.25;12.30;;;;;;;;;;5034071;28;20029;-71
2024/03/08 11:53:49;;;;;;;24.52;11.63;;;;;;;;;;5018815;28;20033;-70
2024/03/08 11:56:35;;;;;;;22.98;12.63;;;;;;;;;;5032524;28;20025;-71
2024/03/08 11:59:21;;;;;;;19.13;10.30;;;;;;;;;;5034180;28;20037;-70
2024/03/08 12:02:09;;;;;;;25.35;11.73;;;;;;;;;;5032884;28;20054;-70
2024/03/08 12:05:00;;;;;;;27.70;12.80;;;;;;;;;;5034002;28;20044;-70
2024/03/08 12:07:56;;;;;;;27.55;13.25;;;;;;;;;;5052935;28;20024;-70
2024/03/08 12:10:42;;;;;;;22.85;11.73;;;;;;;;;;5051469;28;20025;-71
2024/03/08 12:13:29;;;;;;;24.63;11.93;;;;;;;;;;5053873;28;20028;-70
2024/03/08 12:16:17;;;;;;;25.50;12.52;;;;;;;;;;5053039;28;20028;-70
2024/03/08 12:19:04;;;;;;;24.10;12.07;;;;;;;;;;5044511;28;20030;-69
2024/03/08 12:21:49;;;;;;;27.52;13.45;;;;;;;;;;5033415;28;20030;-70
2024/03/08 12:24:37;;;;;;;22.23;12.82;;;;;;;;;;5034938;28;20029;-70
2024/03/08 12:27:22;;;;;;;28.17;13.82;;;;;;;;;;5032671;28;20033;-67
2024/03/08 12:30:28;;;;;;;28.10;13.80;;;;;;;;;;5032697;28;20053;-67
2024/03/08 12:33:14;;;;;;;25.02;11.90;;;;;;;;;;5018516;28;20025;-67
2024/03/08 12:35:59;;;;;;;23.40;12.48;;;;;;;;;;5034165;28;20021;-67
2024/03/08 12:38:49;;;;;;;25.83;13.13;;;;;;;;;;5037112;28;20635;-67
2024/03/08 12:41:39;;;;;;;26.88;13.27;;;;;;;;;;5036168;28;20025;-67
2024/03/08 12:44:25;;;;;;;27.35;13.50;;;;;;;;;;5036893;28;20522;-67
2024/03/08 12:47:11;;;;;;;24.40;12.07;;;;;;;;;;5020687;28;20026;-67
2024/03/08 12:49:57;;;;;;;24.98;12.13;;;;;;;;;;5036821;28;20021;-67
2024/03/08 12:52:42;;;;;;;29.35;13.52;;;;;;;;;;5036684;28;20037;-67
2024/03/08 12:55:28;;;;;;;26.90;13.27;;;;;;;;;;5036213;28;20060;-67
2024/03/08 12:58:16;;;;;;;23.40;12.82;;;;;;;;;;5036660;28;20486;-69
2024/03/08 13:01:04;;;;;;;30.15;13.63;;;;;;;;;;5036245;28;20409;-69
2024/03/08 13:03:50;;;;;;;26.15;14.55;;;;;;;;;;5022200;28;20013;-69
2024/03/08 13:06:36;;;;;;;24.92;13.73;;;;;;;;;;5036615;28;20017;-69
2024/03/08 13:09:22;;;;;;;24.77;12.88;;;;;;;;;;5036947;28;20107;-69
2024/03/08 13:12:08;;;;;;;28.25;14.00;;;;;;;;;;5036613;28;20384;-70
2024/03/08 13:14:56;;;;;;;27.02;12.80;;;;;;;;;;5036211;28;20466;-69
2024/03/08 13:17:42;;;;;;;22.05;11.55;;;;;;;;;;5021957;28;20461;-69
2024/03/08 13:20:28;;;;;;;25.70;13.32;;;;;;;;;;5021123;28;20395;-69
2024/03/08 13:23:14;;;;;;;25.02;12.50;;;;;;;;;;5036286;28;20024;-70
2024/03/08 13:26:00;;;;;;;23.17;12.48;;;;;;;;;;5036168;28;20110;-69
2024/03/08 13:28:48;;;;;;;22.95;11.88;;;;;;;;;;5036102;28;20021;-69
2024/03/08 13:31:36;;;;;;;20.75;11.68;;;;;;;;;;5007636;28;20545;-69
2024/03/08 13:34:27;;;;;;;25.67;12.00;;;;;;;;;;5021216;28;20505;-67
2024/03/08 13:37:15;;;;;;;25.20;12.43;;;;;;;;;;5035446;28;20075;-66
2024/03/08 13:40:01;;;;;;;24.42;11.38;;;;;;;;;;5034189;28;20025;-66
2024/03/08 13:42:48;;;;;;;25.23;12.60;;;;;;;;;;5034800;28;20048;-67
2024/03/08 13:45:37;;;;;;;22.95;10.85;;;;;;;;;;5034191;28;20364;-66
2024/03/08 13:48:23;;;;;;;27.60;13.15;;;;;;;;;;5020851;28;20541;-66
2024/03/08 13:51:15;;;;;;;20.48;11.73;;;;;;;;;;5035278;28;20039;-67
2024/03/08 13:54:00;;;;;;;24.30;12.57;;;;;;;;;;5034240;28;20040;-67
2024/03/08 13:56:46;;;;;;;20.85;12.45;;;;;;;;;;5035281;28;20022;-67
2024/03/08 13:59:32;;;;;;;23.10;11.32;;;;;;;;;;5034635;28;20084;-66
2024/03/08 14:02:18;;;;;;;24.27;12.70;;;;;;;;;;5033859;28;20021;-66
2024/03/08 14:05:04;;;;;;;23.08;11.90;;;;;;;;;;5035590;28;20021;-66
2024/03/08 14:07:50;;;;;;;23.83;12.02;;;;;;;;;;5020360;28;20550;-67
2024/03/08 14:10:39;;;;;;;19.92;11.43;;;;;;;;;;5034726;28;20033;-66
2024/03/08 14:13:25;;;;;;;24.40;11.38;;;;;;;;;;5035566;28;20423;-66
2024/03/08 14:16:11;;;;;;;23.58;13.32;;;;;;;;;;5034200;28;20033;-67
2024/03/08 14:18:57;;;;;;;20.42;12.38;;;;;;;;;;5035218;28;20105;-66
2024/03/08 14:21:43;;;;;;;28.75;12.60;;;;;;;;;;5035221;28;20025;-66
2024/03/08 14:24:28;;;;;;;22.45;11.70;;;;;;;;;;5033443;28;20022;-67
2024/03/08 14:27:18;;;;;;;25.15;13.02;;;;;;;;;;5034954;28;20104;-67
2024/03/08 14:30:04;;;;;;;29.48;13.77;;;;;;;;;;5034386;28;20091;-67
2024/03/08 14:32:53;;;;;;;;;;;;;;;;;;5034385;28;20099;-67
2024/03/08 14:35:40;;;;;;;23.17;12.18;;;;;;;;;;5034992;28;19962;-67
2024/03/08 14:38:27;;;;;;;25.17;13.32;;;;;;;;;;5033351;28;20030;-66
2024/03/08 14:41:15;;;;;;;25.80;12.25;;;;;;;;;;5034532;28;20474;-67
2024/03/08 14:44:01;;;;;;;28.52;14.15;;;;;;;;;;5033171;28;20032;-66
2024/03/08 14:46:47;;;;;;;26.52;13.50;;;;;;;;;;5034825;28;20513;-66
2024/03/08 14:49:36;;;;;;;26.83;13.63;;;;;;;;;;5019586;28;20053;-66
2024/03/08 14:52:27;;;;;;;32.72;13.75;;;;;;;;;;5034372;28;20053;-66
2024/03/08 14:55:14;;;;;;;29.17;15.07;;;;;;;;;;5033900;28;20018;-66
2024/03/08 14:58:00;;;;;;;23.70;13.57;;;;;;;;;;5032651;28;20026;-66
2024/03/08 15:00:45;;;;;;;26.67;12.38;;;;;;;;;;5033006;28;20037;-66
2024/03/08 15:03:32;;;;;;;24.23;12.05;;;;;;;;;;5033983;28;20100;-66
2024/03/08 15:06:19;;;;;;;23.58;12.05;;;;;;;;;;5034146;28;20083;-66
2024/03/08 15:09:11;;;;;;;24.73;12.50;;;;;;;;;;5034121;28;20044;-66
2024/03/08 15:11:57;;;;;;;28.63;12.13;;;;;;;;;;5033697;28;20493;-66
2024/03/08 15:14:43;;;;;;;29.95;13.77;;;;;;;;;;5033455;28;20064;-66
2024/03/08 15:17:29;;;;;;;27.35;13.70;;;;;;;;;;5035346;28;20036;-67
2024/03/08 15:20:16;;;;;;;21.08;12.00;;;;;;;;;;5034436;28;20028;-67
2024/03/08 15:23:03;;;;;;;23.80;11.82;;;;;;;;;;5033523;28;20029;-67
2024/03/08 15:25:49;;;;;;;25.77;11.70;;;;;;;;;;5035166;28;20022;-67
2024/03/08 15:28:37;;;;;;;25.83;13.27;;;;;;;;;;5034934;28;20021;-67
2024/03/08 15:31:27;;;;;;;28.40;12.73;;;;;;;;;;5033045;28;20021;-67
2024/03/08 15:34:13;;;;;;;22.38;10.57;;;;;;;;;;5018651;28;20372;-67
2024/03/08 15:37:02;;;;;;;26.48;11.93;;;;;;;;;;5032047;28;20029;-68
2024/03/08 15:39:48;;;;;;;24.35;11.90;;;;;;;;;;5042133;28;20022;-67
2024/03/08 15:42:34;;;;;;;28.02;12.60;;;;;;;;;;5041684;28;20033;-68
2024/03/08 15:45:19;;;;;;;22.88;12.23;;;;;;;;;;5051732;28;20009;-67
2024/03/08 15:48:05;;;;;;;27.48;12.70;;;;;;;;;;5051538;28;20029;-69
2024/03/08 15:50:51;;;;;;;22.50;11.77;;;;;;;;;;5048577;28;20024;-70
2024/03/08 15:53:37;;;;;;;26.60;12.18;;;;;;;;;;5033246;28;20032;-70
2024/03/08 15:56:23;;;;;;;25.25;12.23;;;;;;;;;;5032587;28;20030;-70
2024/03/08 15:59:09;;;;;;;31.83;13.85;;;;;;;;;;5036671;28;20035;-70
2024/03/08 16:01:55;;;;;;;20.77;10.48;;;;;;;;;;5036552;28;20060;-70
2024/03/08 16:04:40;;;;;;;28.42;12.18;;;;;;;;;;5034282;28;20021;-70
2024/03/08 16:07:26;;;;;;;22.85;12.13;;;;;;;;;;5035264;28;20056;-70
2024/03/08 16:10:12;;;;;;;24.88;12.13;;;;;;;;;;5031253;28;20403;-70
2024/03/08 16:12:58;;;;;;;26.35;11.77;;;;;;;;;;5032083;28;20100;-70
2024/03/08 16:15:44;;;;;;;24.52;12.27;;;;;;;;;;5031641;28;20030;-69
2024/03/08 16:18:32;;;;;;;23.70;11.70;;;;;;;;;;5017449;28;20475;-69